Terminal Aerodrome Forecast
Issued by NWS

Home | Current Version | Previous Version | Text Only | Print | Product List | Glossary On
Versions: 1 2 3 4 5 6 7 8 9 10 11 12 13 14 15 16 17
773
FTUS46 KMTR 230520
TAFOAK
TAF
KOAK 230520Z 2306/2412 28012KT P6SM FEW050 FEW100
     FM230900 28006KT P6SM FEW030
     FM231800 25007KT P6SM SKC
     FM232200 24011KT P6SM SCT200
     FM240400 16006KT P6SM SCT060 BKN120
     FM241000 14010KT P6SM -RA SCT030 OVC060=

USA.gov is the U.S. government's official web portal to all federal, state and local government web resources and services.